Date,TemperatureHighF,TemperatureAvgF,TemperatureLowF,DewpointHighF,DewpointAvgF,DewpointLowF,HumidityHigh,HumidityAvg,HumidityLow,PressureMaxIn,PressureMinIn,WindSpeedMaxMPH,WindSpeedAvgMPH,GustSpeedMaxMPH,PrecipitationSumIn
2013-1-1,40.5,30.6,24.8,28.9,18.6,13.7,73,62,39,17.72,17.72,4,0,6,0.00
2013-1-2,43.9,33.1,26.1,19.4,11.8,3.5,66,44,25,17.72,17.72,8,1,9,0.00
2013-1-3,43.7,35.5,25.5,20.1,8.2,1.8,54,33,23,17.72,17.72,9,2,14,0.04
2013-1-4,47.3,40.4,34.9,38.9,30.3,19.9,73,67,54,17.72,17.72,7,0,8,0.08
2013-1-5,42.8,40.7,37.2,31.6,20.1,15.4,69,44,34,17.72,17.72,9,1,10,0.04
2013-1-6,44.6,40.3,36.3,33.5,29.0,23.0,71,64,56,17.72,17.72,6,0,6,0.08
2013-1-7,48.9,45.1,39.2,41.0,33.8,27.5,74,65,50,17.72,17.72,13,3,15,0.12
2013-1-8,52.5,46.4,40.5,42.4,32.8,27.5,74,60,42,17.72,17.72,12,2,17,0.04
2013-1-9,49.1,38.9,33.4,38.2,29.8,24.7,75,70,59,17.72,17.72,9,1,9,0.67
2013-1-10,36.5,34.6,29.5,26.2,24.2,20.9,72,65,61,17.72,17.72,4,0,5,0.00
2013-1-11,34.9,28.5,23.7,26.9,18.7,12.4,76,67,46,17.72,17.72,4,0,4,0.00
2013-1-12,34.7,25.8,21.0,23.9,13.3,8.5,70,59,40,17.72,17.72,5,0,7,0.00
2013-1-13,34.2,25.8,18.7,18.6,11.6,8.2,65,55,38,17.72,17.72,4,0,4,0.00
2013-1-14,36.1,32.3,28.6,17.6,15.5,12.4,59,50,39,17.72,17.72,4,0,4,0.00
2013-1-15,42.1,33.1,26.1,26.3,17.3,11.6,66,53,36,17.72,17.72,6,0,6,0.00
2013-1-16,39.9,29.3,22.5,27.5,16.9,13.2,70,60,42,17.72,17.72,4,0,5,0.00
2013-1-17,38.7,29.2,24.4,28.7,19.5,15.1,72,67,58,17.72,17.72,5,0,6,0.00
2013-1-18,36.0,29.9,23.7,28.2,22.1,15.7,74,72,70,17.72,17.72,4,0,5,0.00
2013-1-19,33.4,30.3,28.2,26.7,23.6,21.6,77,76,75,17.72,17.72,3,0,4,0.00
2013-1-20,35.4,30.1,26.8,28.9,23.8,20.5,78,77,77,17.72,17.72,3,0,3,0.00
2013-1-21,33.8,30.1,27.0,27.5,23.9,20.7,78,78,77,17.72,17.72,4,0,4,0.00
2013-1-22,37.9,31.3,24.1,31.4,25.0,18.2,78,77,76,17.72,17.72,3,0,4,0.00
2013-1-23,44.1,39.9,35.2,31.1,23.1,11.6,77,53,29,17.72,17.72,10,1,10,0.08
2013-1-24,45.9,39.9,33.3,32.5,26.1,19.7,71,59,37,17.72,17.72,6,0,8,0.08
2013-1-25,50.7,43.8,37.2,40.8,32.5,22.7,75,65,44,17.72,17.72,5,0,5,0.16
2013-1-26,47.7,41.1,37.4,33.4,27.1,20.6,72,59,39,17.72,17.72,14,1,15,0.00
2013-1-27,41.0,39.0,37.9,30.9,28.6,25.5,71,66,57,17.72,17.72,8,1,9,0.00
2013-1-28,41.2,39.4,36.7,33.9,31.9,29.0,76,74,71,17.72,17.72,9,0,9,0.28
2013-1-29,46.0,43.6,40.5,39.2,36.7,33.5,77,77,76,17.72,17.72,10,1,11,0.08
2013-1-30,47.7,46.1,43.3,40.8,39.2,36.3,78,77,76,17.72,17.72,8,1,8,0.16
2013-1-31,48.9,46.7,45.5,42.0,39.6,38.2,78,76,73,17.72,17.72,6,0,7,0.08
2013-2-1,51.1,44.7,37.6,42.2,34.6,25.4,76,68,49,17.72,17.72,5,0,6,0.00
2013-2-2,41.5,38.8,34.0,33.4,30.5,25.4,74,72,65,17.72,17.72,4,0,6,0.00
2013-2-3,47.3,42.1,33.8,39.5,33.5,26.1,76,71,61,17.72,17.72,5,0,6,0.04
2013-2-4,51.4,45.3,42.1,39.1,31.5,24.9,73,60,37,17.72,17.72,5,0,6,0.00
2013-2-5,49.5,44.7,42.3,34.7,30.1,26.3,64,56,43,17.72,17.72,12,2,12,0.12
2013-2-6,51.3,44.3,41.4,34.6,27.6,21.4,65,52,33,17.72,17.72,11,2,12,0.08
2013-2-7,49.5,40.4,30.0,26.4,20.2,14.3,59,45,28,17.72,17.72,10,1,13,0.08
2013-2-8,44.2,37.0,29.7,32.8,22.4,17.1,71,56,38,17.72,17.72,5,0,6,0.00
2013-2-9,44.6,40.2,37.4,33.0,26.8,21.9,68,59,46,17.72,17.72,4,0,4,0.00
2013-2-10,47.1,39.7,31.1,37.4,24.6,17.4,73,56,31,17.72,17.72,7,1,7,0.00
2013-2-11,47.5,41.8,36.1,31.4,25.0,21.9,66,52,37,17.72,17.72,6,0,6,0.00
2013-2-12,48.7,46.3,43.0,39.6,34.6,28.4,72,64,51,17.72,17.72,10,2,11,0.00
2013-2-13,47.3,45.0,42.4,32.8,27.4,23.7,60,50,40,17.72,17.72,11,1,11,0.00
2013-2-14,49.3,44.9,41.4,35.5,31.2,29.3,68,59,47,17.72,17.72,5,0,6,0.04
2013-2-15,56.8,43.3,36.9,40.7,29.3,22.9,72,59,33,17.72,17.72,5,0,5,0.00
2013-2-16,52.7,44.3,35.1,34.3,26.3,18.9,69,51,27,17.72,17.72,11,2,14,0.00
2013-2-17,46.8,41.6,39.2,22.6,19.7,15.6,51,41,31,17.72,17.72,6,1,8,0.00
2013-2-18,47.3,39.4,34.0,29.7,22.3,17.1,67,51,33,17.72,17.72,4,0,6,0.00
2013-2-19,52.0,39.4,30.2,26.3,18.8,14.2,62,45,26,17.72,17.72,8,1,8,0.00
2013-2-20,45.0,37.8,30.7,27.5,23.0,18.7,67,56,38,17.72,17.72,6,0,8,0.04
2013-2-21,42.3,40.2,35.4,30.6,27.0,23.9,71,59,49,17.72,17.72,12,2,13,0.00
2013-2-22,44.1,40.8,37.2,32.8,27.0,19.0,67,58,44,17.72,17.72,13,3,17,0.12
2013-2-23,49.5,41.4,37.4,25.5,21.5,15.3,56,46,28,17.72,17.72,9,2,9,0.00
2013-2-24,47.1,42.5,38.8,22.8,21.0,18.2,49,42,32,17.72,17.72,10,2,13,0.00
2013-2-25,50.2,42.1,37.6,27.2,20.6,13.3,58,43,24,17.72,17.72,15,3,15,0.00
2013-2-26,49.8,42.8,38.5,19.8,17.0,12.9,46,36,26,17.72,17.72,7,2,8,0.00
2013-2-27,49.8,43.1,36.3,35.7,27.6,18.3,69,55,37,17.72,17.72,5,0,7,0.16
2013-2-28,50.5,45.8,41.7,42.6,37.5,32.3,74,73,69,17.72,17.72,6,0,6,0.00
2013-3-1,59.4,53.2,46.6,43.8,36.3,29.8,75,54,35,17.72,17.72,13,2,13,0.08
2013-3-2,57.6,47.8,37.6,35.7,28.9,23.8,61,49,30,17.72,17.72,9,2,11,0.08
2013-3-3,50.7,38.8,29.5,30.4,20.3,14.0,68,49,26,17.72,17.72,8,1,8,0.00
2013-3-4,57.6,40.4,25.7,28.3,15.1,8.1,67,40,19,17.72,17.72,8,1,8,0.00
2013-3-5,51.8,43.7,36.5,23.3,15.5,4.5,49,32,23,17.72,17.72,7,1,8,0.00
2013-3-6,45.0,40.4,36.1,29.6,26.0,20.9,68,56,46,17.72,17.72,9,1,10,0.28
2013-3-7,53.4,42.9,32.5,38.4,28.6,19.8,73,59,31,17.72,17.72,5,0,6,0.00
2013-3-8,55.4,39.6,28.8,37.4,22.1,18.7,71,52,26,17.72,17.72,8,1,8,0.00
2013-3-9,58.6,40.6,28.4,33.8,20.1,13.5,70,47,20,17.72,17.72,5,1,7,0.00
2013-3-10,46.2,41.0,33.6,30.1,25.2,17.3,64,53,46,17.72,17.72,4,0,4,0.00
2013-3-11,52.5,44.9,36.9,36.6,30.6,25.4,71,58,36,17.72,17.72,4,0,4,0.00
2013-3-12,53.8,50.9,46.0,39.3,35.0,27.7,68,55,37,17.72,17.72,11,3,12,0.00
2013-3-13,53.4,50.7,48.7,41.6,39.6,36.9,72,66,57,17.72,17.72,13,1,13,0.00
2013-3-14,54.0,49.5,47.1,44.8,38.7,28.7,75,67,43,17.72,17.72,6,0,6,0.04
2013-3-15,59.7,51.8,47.5,42.4,35.9,29.8,70,56,34,17.72,17.72,10,1,10,0.00
2013-3-16,50.2,45.7,39.4,33.7,27.4,18.0,57,49,35,17.72,17.72,13,3,13,0.12
2013-3-17,50.4,41.5,37.9,22.4,18.6,14.3,51,40,27,17.72,17.72,13,3,13,0.00
2013-3-18,54.3,42.9,33.3,23.6,17.5,10.1,48,37,21,17.72,17.72,13,2,13,0.00
2013-3-19,57.4,41.7,30.6,27.2,19.7,13.5,59,44,19,17.72,17.72,10,2,12,0.16
2013-3-20,49.8,44.5,38.5,40.1,27.4,16.3,71,52,34,29.32,17.72,17,3,17,0.16
2013-3-21,50.5,38.7,33.4,22.7,19.4,13.1,63,47,27,29.32,29.32,11,2,11,0.00
2013-3-22,49.3,37.2,29.5,33.2,20.3,11.3,71,53,27,29.32,29.32,8,1,10,0.00
2013-3-23,54.0,38.3,29.5,18.6,14.3,7.4,57,40,21,29.32,29.32,7,1,7,0.00
2013-3-24,58.6,41.1,27.1,24.8,14.9,10.1,59,37,19,29.32,29.32,6,1,8,0.00
2013-3-25,65.5,47.4,29.7,20.9,15.4,10.9,47,30,18,29.32,29.32,6,1,8,0.00
2013-3-26,63.0,50.9,42.3,24.3,20.0,15.6,41,30,19,29.32,29.32,8,1,8,0.00
2013-3-27,58.1,48.5,40.5,32.5,25.1,16.3,55,40,26,29.32,29.32,6,0,7,0.00
2013-3-28,63.7,49.7,39.0,42.8,30.9,23.7,70,51,24,29.32,29.32,6,1,6,0.00
2013-3-29,67.5,52.1,39.9,41.1,29.3,21.1,70,46,20,29.32,29.32,8,1,8,0.00
2013-3-30,70.5,52.3,35.8,40.7,25.9,22.5,69,40,19,29.32,29.32,9,2,10,0.00
2013-3-31,73.0,53.7,37.4,37.6,26.1,21.1,67,38,19,29.32,29.32,6,1,7,0.00
2013-4-1,64.8,51.3,39.7,40.0,30.7,25.6,68,47,25,29.32,29.32,6,1,8,0.00
2013-4-2,55.4,50.9,47.7,36.5,32.2,29.5,60,49,39,29.32,29.32,6,0,6,0.00
2013-4-3,65.1,52.1,39.7,39.7,29.2,22.1,70,45,21,29.32,29.32,6,1,6,0.00
2013-4-4,56.7,52.0,47.3,45.6,37.7,28.1,69,58,46,29.32,29.32,8,1,8,0.16
2013-4-5,57.7,51.5,47.5,42.4,37.6,30.4,71,60,38,29.32,29.32,11,2,11,0.20
2013-4-6,52.2,47.0,43.3,39.2,34.8,28.0,70,63,46,29.32,29.32,12,2,12,0.31
2013-4-7,43.7,41.6,39.0,34.9,32.9,30.2,73,71,67,29.32,29.32,8,0,9,0.59
2013-4-8,56.8,46.3,40.5,46.1,32.2,22.9,75,60,30,29.32,29.32,5,0,6,0.00
2013-4-9,56.3,48.1,39.7,36.0,28.1,21.5,68,48,29,29.32,29.32,6,0,7,0.00
2013-4-10,60.1,51.4,46.9,42.0,29.0,21.4,66,43,27,29.32,29.32,11,2,12,0.16
2013-4-11,52.2,46.5,40.3,33.8,26.6,21.6,58,46,37,29.32,29.32,8,1,11,0.00
2013-4-12,47.5,42.3,37.2,34.2,26.8,21.7,69,54,37,29.32,29.32,10,1,10,0.00
2013-4-13,49.1,40.7,37.0,27.1,22.8,18.7,65,49,36,29.32,29.32,11,2,13,0.16
2013-4-14,57.0,43.4,36.5,37.5,26.2,17.3,73,54,23,29.32,29.32,8,1,8,0.43
2013-4-15,58.1,44.2,34.9,36.5,26.2,19.6,71,52,24,29.32,29.32,8,1,9,0.00
2013-4-16,55.9,42.9,31.8,36.5,23.3,15.9,71,49,26,29.32,29.32,9,1,9,0.00
2013-4-17,63.3,47.8,34.5,26.2,20.7,15.9,58,37,18,29.32,29.32,9,1,9,0.00
2013-4-18,51.3,46.4,39.7,37.8,28.1,19.5,67,49,36,29.32,29.32,8,1,8,0.08
2013-4-19,54.5,50.1,47.1,44.9,40.0,36.4,72,68,58,29.32,29.32,8,1,8,0.28
2013-4-20,54.1,48.6,45.9,37.5,33.3,25.7,69,56,39,29.32,29.32,8,1,10,0.04
2013-4-21,53.1,46.3,38.1,36.0,27.5,20.9,56,48,37,29.32,29.32,7,1,8,0.08
2013-4-22,62.4,46.5,32.7,37.8,21.4,8.1,70,42,19,29.32,29.32,9,1,10,0.00
2013-4-23,64.6,48.6,32.2,27.2,18.4,12.2,58,33,18,29.32,29.32,8,1,9,0.00
2013-4-24,70.7,52.8,36.1,28.5,21.4,15.3,56,32,17,29.32,29.32,8,1,8,0.00
2013-4-25,72.0,55.1,37.4,27.6,22.0,17.5,54,30,16,29.32,29.32,6,1,6,0.00
2013-4-26,69.8,55.7,39.9,37.8,27.6,22.1,64,37,19,29.32,29.32,7,1,9,0.00
2013-4-27,55.2,52.5,50.4,37.0,26.5,18.2,55,38,26,29.32,29.32,9,1,9,0.12
2013-4-28,60.4,51.7,47.1,35.8,28.6,19.6,60,43,24,29.32,29.32,10,2,12,0.00
2013-4-29,55.0,46.3,39.4,40.6,27.8,16.1,65,50,27,29.32,29.32,9,1,10,0.08
2013-4-30,57.4,45.4,36.0,27.2,19.2,11.6,59,38,19,29.32,29.32,8,1,8,0.00
2013-5-1,66.0,49.3,32.9,23.9,18.9,13.8,57,33,18,29.32,29.32,8,1,10,0.00
2013-5-2,72.0,54.3,37.4,28.5,22.5,16.4,54,31,19,29.32,29.32,7,1,8,0.00
2013-5-3,72.5,58.0,41.5,30.6,24.8,19.0,52,29,19,29.32,29.32,8,1,9,0.00
2013-5-4,79.7,62.2,43.0,36.9,27.3,18.2,61,30,15,29.32,29.32,9,1,10,0.00
2013-5-5,83.5,64.6,45.0,34.1,28.4,20.6,52,28,14,29.32,29.32,8,1,9,0.00
2013-5-6,86.4,66.6,47.1,34.9,28.9,21.9,49,27,14,29.32,29.32,6,1,8,0.00
2013-5-7,71.6,58.9,50.5,36.5,32.4,26.9,56,38,22,29.32,29.32,6,1,6,0.00
2013-5-8,68.0,56.0,47.7,40.6,34.7,28.8,63,47,24,29.32,29.32,5,0,5,0.00
2013-5-9,71.6,57.1,45.1,43.0,35.5,28.2,69,48,23,29.32,29.32,5,0,6,0.00
2013-5-10,79.0,62.7,46.2,46.6,34.9,29.7,69,40,17,29.32,29.32,6,0,6,0.00
2013-5-11,80.8,66.3,54.0,38.0,32.3,25.4,50,30,17,29.32,29.32,4,0,6,0.00
2013-5-12,70.9,62.7,57.2,49.8,41.2,30.8,68,47,23,29.32,29.32,5,0,5,0.16
2013-5-13,66.0,55.6,45.9,50.3,39.5,24.8,72,56,33,29.32,29.32,10,1,12,0.08
2013-5-14,64.4,53.2,42.6,32.2,24.7,17.1,59,36,18,29.32,29.32,7,1,8,0.00
2013-5-15,67.6,53.0,43.3,40.2,28.6,22.7,64,41,23,29.32,29.32,6,0,6,0.00
2013-5-16,70.2,60.1,51.1,47.0,35.7,25.2,72,45,19,29.32,29.32,6,0,8,0.00
2013-5-17,62.2,55.5,51.6,44.1,35.4,26.5,68,48,27,29.32,29.32,6,0,6,0.00
2013-5-18,60.3,54.7,50.4,35.8,32.5,28.4,56,43,31,29.32,29.32,6,0,6,0.00
2013-5-19,66.7,56.9,49.8,39.5,32.8,25.6,64,42,24,29.32,29.32,6,1,8,0.00
2013-5-20,67.5,55.8,46.0,39.3,32.4,25.3,67,44,23,29.32,29.32,5,0,5,0.00
2013-5-21,60.1,51.2,45.5,39.6,30.2,22.3,68,46,26,29.32,29.32,6,1,9,0.16
2013-5-22,52.5,46.2,41.4,39.5,32.9,26.4,69,60,46,29.32,29.32,4,0,6,0.08
2013-5-23,58.8,49.1,42.3,40.8,33.6,25.4,71,56,29,29.32,29.32,4,0,5,0.00
2013-5-24,62.4,52.5,44.8,40.6,32.9,24.6,70,50,25,29.32,29.32,5,0,6,0.00
2013-5-25,64.8,54.8,48.2,41.2,32.0,23.4,68,45,23,29.32,29.32,4,0,6,0.00
2013-5-26,65.5,55.2,48.0,44.7,36.1,29.3,65,50,26,29.32,29.32,5,0,6,0.00
2013-5-27,60.6,54.8,48.2,46.5,41.7,38.1,71,62,47,29.32,29.32,5,0,8,0.24
2013-5-28,61.5,55.4,50.9,44.5,37.9,31.8,70,53,34,29.32,29.32,5,0,6,0.04
2013-5-29,56.8,55.2,48.6,45.9,38.8,34.4,71,55,44,29.32,29.32,8,1,12,0.00
2013-5-30,56.8,56.8,56.8,38.9,38.9,38.9,51,51,51,29.32,29.32,8,1,9,0.00
2013-5-31,56.8,56.8,56.8,38.9,38.9,38.9,51,51,51,29.32,29.32,5,0,6,0.00
2013-6-1,56.8,56.8,56.8,38.9,38.9,38.9,51,51,51,29.32,29.32,6,0,7,0.00
2013-6-2,56.8,56.8,56.8,38.9,38.9,38.9,51,51,51,29.32,29.32,8,0,8,0.00
2013-6-3,56.8,56.8,56.8,38.9,38.9,38.9,51,51,51,29.32,29.32,5,0,6,0.00
2013-6-4,56.8,56.8,56.8,38.9,38.9,38.9,51,51,51,29.32,29.32,6,1,6,0.00
2013-6-5,56.8,56.8,56.8,38.9,38.9,38.9,51,51,51,29.32,29.32,6,1,10,0.00
2013-6-6,56.8,56.8,56.8,38.9,38.9,38.9,51,51,51,29.32,29.32,6,0,6,0.00
2013-6-7,56.8,56.8,56.8,38.9,38.9,38.9,51,51,51,29.32,29.32,6,0,8,0.00
2013-6-8,56.8,56.8,56.8,38.9,38.9,38.9,51,51,51,29.32,29.32,6,1,8,0.00
2013-6-9,56.8,56.8,56.8,38.9,38.9,38.9,51,51,51,29.32,29.32,6,1,8,0.00
2013-6-10,56.8,56.8,56.8,38.9,38.9,38.9,51,51,51,29.32,29.32,6,1,8,0.00
2013-6-11,56.8,56.8,56.8,38.9,38.9,38.9,51,51,51,29.32,29.32,8,1,10,0.00
2013-6-12,56.8,56.8,56.8,38.9,38.9,38.9,51,51,51,29.32,29.32,8,0,8,0.00
2013-6-13,56.8,56.8,56.8,38.9,38.9,38.9,51,51,51,29.32,29.32,5,0,6,0.04
2013-6-14,56.8,56.8,56.8,38.9,38.9,38.9,51,51,51,29.32,29.32,4,0,5,0.00
2013-6-15,56.8,56.8,56.8,38.9,38.9,38.9,51,51,51,29.32,29.32,6,0,6,0.83
2013-6-16,56.8,56.8,56.8,38.9,38.9,38.9,51,51,51,29.32,29.32,6,0,6,0.04
2013-6-17,56.8,56.8,56.8,38.9,38.9,38.9,51,51,51,29.32,29.32,4,0,5,0.00
2013-6-18,56.8,56.8,56.8,38.9,38.9,38.9,51,51,51,29.32,29.32,5,0,5,0.00
2013-6-19,56.8,56.8,56.8,38.9,38.9,38.9,51,51,51,29.32,29.32,8,0,8,0.04
2013-6-20,56.8,56.8,56.8,38.9,38.9,38.9,51,51,51,29.32,29.32,6,0,10,0.00
2013-6-21,56.8,56.8,56.8,38.9,38.9,38.9,51,51,51,29.32,29.32,5,0,5,0.00
2013-6-22,56.8,56.8,56.8,38.9,38.9,38.9,51,51,51,29.32,29.32,5,0,5,0.00
2013-6-23,56.8,56.8,56.8,38.9,38.9,38.9,51,51,51,29.32,29.32,4,0,5,0.12
2013-6-24,56.8,56.8,56.8,38.9,38.9,38.9,51,51,51,29.32,29.32,10,0,10,0.08
2013-6-25,56.8,56.8,56.8,38.9,38.9,38.9,51,51,51,29.32,29.32,5,0,10,0.24
2013-6-26,56.8,56.8,56.8,38.9,38.9,38.9,51,51,51,29.32,29.32,4,0,5,0.00
2013-6-27,56.8,56.8,56.8,38.9,38.9,38.9,51,51,51,29.32,29.32,4,0,4,0.00
2013-6-28,56.8,56.8,56.8,38.9,38.9,38.9,51,51,51,29.32,29.32,4,0,5,0.00
2013-6-29,56.8,35.0,0.0,38.9,24.0,0.0,51,31,51,29.47,29.32,4,0,4,0.00
2013-6-30,93.7,35.7,0.0,46.2,17.1,0.0,42,9,17,29.47,29.29,6,1,6,0.00
2013-7-1,88.0,75.7,62.8,48.7,41.3,36.0,57,32,18,29.47,29.35,5,0,6,0.00
2013-7-2,80.6,70.2,60.8,45.2,37.6,27.5,54,33,17,29.56,29.47,8,1,8,0.00
2013-7-3,78.4,68.0,60.1,34.3,28.9,21.5,33,23,20,29.59,29.47,7,1,7,0.00
2013-7-4,70.2,61.9,56.3,37.5,34.5,28.5,49,36,24,29.59,29.47,6,0,6,0.00
2013-7-5,74.1,63.3,54.0,42.2,35.7,30.0,59,38,21,29.50,29.41,6,0,6,0.00
2013-7-6,77.9,64.3,51.1,45.6,37.0,30.2,67,40,20,29.44,29.32,6,0,6,0.00
2013-7-7,75.2,63.7,55.0,44.6,38.4,31.4,60,41,22,29.41,29.35,5,0,6,0.00
2013-7-8,77.5,64.5,54.9,40.9,37.0,31.2,56,38,20,29.53,29.41,6,1,7,0.00
2013-7-9,83.7,69.4,54.5,50.0,37.0,27.3,66,34,19,29.56,29.41,8,1,8,0.00
2013-7-10,72.7,62.0,54.3,42.2,36.0,30.5,58,39,24,29.50,29.38,5,0,8,0.00
2013-7-11,71.6,61.0,53.6,35.3,29.8,25.4,41,31,21,29.50,29.41,5,0,8,0.00
2013-7-12,67.8,58.7,52.0,35.6,30.3,25.2,53,34,24,29.53,29.41,6,0,6,0.00
2013-7-13,75.9,61.7,47.1,42.7,32.8,26.3,67,38,18,29.59,29.53,8,1,8,0.00
2013-7-14,80.2,65.5,48.0,39.1,30.1,22.5,56,29,17,29.53,29.38,6,0,6,0.00
2013-7-15,80.4,67.1,50.7,37.2,30.8,24.0,50,27,17,29.47,29.32,10,1,10,0.00
2013-7-16,86.0,70.6,53.1,39.8,33.0,24.8,47,26,16,29.32,29.23,6,0,6,0.00
2013-7-17,68.4,63.2,54.9,47.8,40.4,36.3,63,44,32,29.62,29.29,6,0,6,0.04
2013-7-18,76.8,64.2,53.1,46.8,39.2,32.7,68,43,22,29.62,29.53,5,0,6,0.00
2013-7-19,79.7,65.8,52.9,47.5,39.8,33.7,67,42,21,29.59,29.44,6,0,6,0.00
2013-7-20,75.9,63.6,55.0,46.6,40.4,33.1,66,45,22,29.50,29.38,5,0,6,0.00
2013-7-21,75.0,62.8,54.9,47.5,40.9,33.1,68,47,23,29.38,29.32,5,0,6,0.00
2013-7-22,77.4,64.0,56.3,48.5,41.3,32.3,69,47,21,29.47,29.35,5,0,6,0.00
2013-7-23,85.6,69.0,54.1,50.5,38.2,29.6,68,37,16,29.47,29.38,6,1,8,0.00
2013-7-24,84.7,70.2,54.3,44.7,34.0,22.9,58,29,16,29.47,29.41,7,1,8,0.00
2013-7-25,85.1,68.5,51.3,40.1,31.7,24.8,53,28,16,29.53,29.44,6,1,8,0.00
2013-7-26,84.4,68.6,51.4,37.2,30.8,19.6,51,27,15,29.56,29.47,10,1,10,0.00
2013-7-27,76.3,63.7,50.4,35.8,30.1,18.8,50,30,18,29.56,29.41,6,1,6,0.00
2013-7-28,69.4,59.3,49.8,40.3,34.7,31.0,61,41,25,29.44,29.38,8,1,8,0.00
2013-7-29,74.3,62.8,52.5,39.8,35.2,30.5,56,38,21,29.44,29.38,6,0,6,0.00
2013-7-30,76.6,64.1,53.1,43.7,37.0,30.7,63,39,21,29.53,29.41,6,0,6,0.00
2013-7-31,69.6,61.7,54.7,47.6,42.8,38.8,67,51,34,29.53,29.41,5,0,5,0.00
2013-8-1,66.0,60.3,55.4,47.4,40.2,35.2,69,49,34,29.50,29.44,5,0,5,0.00
2013-8-2,61.9,59.7,58.3,48.7,42.2,35.9,69,53,38,29.53,29.47,6,0,6,0.04
2013-8-3,71.1,63.7,58.5,53.6,45.2,37.5,72,54,32,29.53,29.47,6,0,6,0.00
2013-8-4,82.0,68.1,55.6,50.0,40.7,32.4,68,41,20,29.47,29.35,6,1,8,0.00
2013-8-5,85.1,69.5,56.1,52.7,38.6,29.7,68,36,16,29.44,29.35,8,1,8,0.00
2013-8-6,85.6,69.0,53.4,45.5,36.5,29.3,63,34,16,29.41,29.32,6,0,6,0.00
2013-8-7,85.5,69.0,53.4,44.3,35.5,29.9,59,32,16,29.44,29.35,6,1,8,0.00
2013-8-8,80.8,66.9,55.2,45.1,37.9,33.5,61,37,20,29.44,29.35,6,0,6,0.00
2013-8-9,81.1,68.1,55.6,46.6,37.1,32.3,62,34,20,29.38,29.29,5,0,6,0.00
2013-8-10,78.1,67.4,59.4,52.6,44.3,36.7,68,46,24,29.44,29.32,6,0,6,0.04
2013-8-11,75.2,65.8,57.2,41.2,37.3,32.3,52,37,22,29.47,29.41,6,0,6,0.00
2013-8-12,77.0,67.0,57.6,41.8,35.8,30.8,52,33,20,29.50,29.44,8,1,8,0.00
2013-8-13,80.8,67.2,53.8,45.1,36.0,28.4,63,35,17,29.53,29.35,5,0,6,0.00
2013-8-14,81.7,66.7,57.0,50.6,39.1,31.1,64,39,19,29.41,29.32,5,0,6,0.00
2013-8-15,68.2,65.0,61.7,56.5,53.9,50.6,71,67,59,29.41,29.35,3,0,4,0.08
2013-8-16,81.9,70.6,61.3,58.9,44.2,30.4,73,45,17,29.44,29.38,5,0,7,0.00
2013-8-17,77.0,68.3,60.8,39.4,36.1,32.0,40,31,21,29.50,29.44,7,1,8,0.00
2013-8-18,79.2,67.5,59.5,41.2,36.4,31.8,47,33,20,29.53,29.47,7,1,8,0.00
2013-8-19,78.3,66.5,58.6,41.7,34.6,29.2,50,32,21,29.53,29.47,7,0,7,0.00
2013-8-20,76.6,65.9,56.7,33.8,30.4,26.3,36,27,20,29.59,29.50,8,1,8,0.00
2013-8-21,81.7,65.6,50.2,39.1,32.6,28.6,55,31,17,29.50,29.35,8,1,10,0.00
2013-8-22,83.3,68.9,53.6,40.1,34.4,28.4,52,30,19,29.35,29.23,6,0,6,0.00
2013-8-23,72.5,65.1,60.4,40.3,36.6,31.9,46,35,24,29.32,29.26,6,0,8,0.00
2013-8-24,74.5,62.7,59.0,47.5,40.5,27.5,62,45,21,29.35,29.26,5,0,6,0.00
2013-8-25,71.4,62.4,52.5,43.9,35.9,31.9,55,38,24,29.35,29.26,5,0,6,0.00
2013-8-26,74.3,64.0,58.1,47.3,41.3,29.7,61,46,22,29.38,29.29,6,0,8,0.00
2013-8-27,78.4,67.3,59.7,50.0,41.3,33.4,66,42,21,29.38,29.23,5,0,6,0.00
2013-8-28,76.5,67.8,60.3,56.9,44.8,37.5,72,46,25,29.32,29.26,5,0,5,0.28
2013-8-29,66.7,65.1,65.1,50.0,49.9,45.9,58,58,47,29.44,29.29,5,0,6,0.91
2013-8-30,65.1,65.1,65.1,50.0,50.0,50.0,58,58,58,29.59,29.44,6,0,7,0.00
2013-8-31,65.1,65.1,65.1,50.0,50.0,50.0,58,58,58,29.50,29.26,8,1,8,0.00
2013-9-1,65.1,65.1,65.1,50.0,50.0,50.0,58,58,58,29.32,29.23,6,0,7,0.00
2013-9-2,65.1,65.1,65.1,50.0,50.0,50.0,58,58,58,29.38,29.29,6,1,7,0.00
2013-9-3,65.1,65.1,65.1,50.0,50.0,50.0,58,58,58,29.44,29.35,5,0,5,0.12
2013-9-4,65.1,65.1,65.1,50.0,50.0,50.0,58,58,58,29.47,29.41,6,0,6,0.00
2013-9-5,65.1,65.1,65.1,50.0,50.0,50.0,58,58,58,29.47,29.35,6,0,8,0.94
2013-9-6,65.1,65.1,65.1,50.0,50.0,50.0,58,58,58,29.53,29.35,8,0,8,0.35
2013-9-7,65.1,65.1,65.1,50.0,50.0,50.0,58,58,58,29.53,29.41,5,0,6,0.00
2013-9-8,65.1,65.1,65.1,50.0,50.0,50.0,58,58,58,29.53,29.44,6,0,6,0.00
2013-9-9,65.1,65.1,65.1,50.0,50.0,50.0,58,58,58,29.47,29.41,7,0,7,0.00
2013-9-10,65.1,65.1,65.1,50.0,50.0,50.0,58,58,58,29.41,29.32,6,0,6,0.00
2013-9-11,65.1,53.4,0.0,50.0,41.1,0.0,58,48,58,29.38,29.29,6,0,6,0.00
2013-9-12,67.1,10.9,0.0,45.2,7.5,0.0,57,8,38,29.44,29.35,5,0,6,0.00
2013-9-13,64.8,61.7,57.6,52.9,48.1,44.4,72,61,50,29.41,29.32,3,0,3,0.00
2013-9-14,67.3,62.9,57.7,50.8,47.3,44.1,66,57,45,29.32,29.21,4,0,5,0.00
2013-9-15,64.9,61.1,56.8,54.9,50.5,46.0,75,68,56,29.29,29.15,5,0,5,0.00
2013-9-16,66.7,61.1,57.9,51.4,45.9,35.7,72,58,40,29.38,29.29,6,0,8,0.00
2013-9-17,61.5,57.9,54.5,39.4,34.4,31.2,55,41,33,29.38,29.32,6,0,7,0.00
2013-9-18,68.4,60.0,53.2,42.8,36.1,27.9,61,44,23,29.53,29.38,6,1,6,0.00
2013-9-19,54.0,53.8,53.6,30.8,30.7,30.5,41,41,41,29.23,29.23,0,0,0,0.00
2013-9-20,72.1,59.7,50.5,46.0,34.6,29.0,66,41,22,29.23,29.09,8,0,9,0.04
2013-9-21,68.5,60.6,54.0,48.2,39.3,27.8,71,49,22,29.21,29.12,6,0,7,0.00
2013-9-22,59.7,56.1,53.4,47.1,40.3,33.9,67,56,40,29.23,29.06,8,1,8,0.16
2013-9-23,58.8,55.0,49.6,44.5,41.1,36.5,70,60,44,29.44,29.23,8,0,8,0.04
2013-9-24,61.2,52.2,47.8,45.7,37.0,26.8,74,58,28,29.44,29.32,6,0,6,0.00
2013-9-25,56.7,50.2,44.2,44.8,38.0,29.4,72,64,38,29.50,29.32,5,0,5,0.04
2013-9-26,60.4,49.5,39.9,44.1,33.3,27.5,73,56,30,29.62,29.47,6,0,6,0.00
2013-9-27,55.6,52.5,48.7,42.9,36.6,31.8,63,55,47,29.62,29.35,8,0,9,0.00
2013-9-28,59.7,55.2,50.7,50.5,44.8,38.5,73,68,59,29.35,28.88,8,1,14,0.43
2013-9-29,53.4,51.3,50.0,42.8,38.4,32.8,68,61,46,29.12,28.70,10,1,10,0.04
2013-9-30,54.7,49.8,47.1,45.0,37.9,30.9,72,63,51,29.47,29.00,8,1,12,0.16
2013-10-1,55.0,48.8,45.3,43.5,36.3,32.0,71,62,46,29.65,29.44,7,1,7,0.00
2013-10-2,53.1,49.6,47.3,40.1,35.9,31.8,70,59,47,29.68,29.59,5,0,7,0.04
2013-10-3,55.4,49.1,41.4,43.8,37.0,30.1,75,64,40,29.97,29.71,4,0,4,0.00
2013-10-4,61.5,47.8,36.5,46.2,32.0,26.6,73,57,27,30.00,29.88,5,0,6,0.00
2013-10-5,68.4,52.4,40.1,45.7,32.6,27.8,73,51,22,29.88,29.68,6,0,6,0.00
2013-10-6,73.4,55.0,42.3,45.1,31.8,24.4,72,46,19,29.68,29.44,8,0,8,0.00
2013-10-7,58.5,53.5,50.5,42.9,35.2,24.9,70,52,29,29.59,29.47,8,1,9,0.12
2013-10-8,52.5,49.4,41.4,40.1,32.9,26.3,66,53,43,29.65,29.53,6,0,6,0.16
2013-10-9,56.8,45.6,35.6,40.3,30.3,24.9,74,57,30,29.71,29.56,4,0,4,0.00
2013-10-10,59.2,50.2,43.2,40.8,33.1,26.3,69,53,29,29.68,29.53,4,0,6,0.00
2013-10-11,55.4,50.9,47.3,45.7,39.2,31.4,74,65,44,29.74,29.65,3,0,4,0.04
2013-10-12,55.9,49.3,42.1,44.1,36.6,29.8,73,62,39,29.85,29.68,6,0,6,0.00
2013-10-13,54.1,45.0,38.3,41.5,32.9,28.1,73,63,41,30.00,29.85,5,0,6,0.00
2013-10-14,57.9,44.4,35.1,45.2,30.7,26.6,74,60,32,30.06,29.97,6,0,6,0.00
2013-10-15,57.9,45.9,36.3,42.7,31.4,27.7,74,59,35,30.06,29.85,4,0,6,0.00
2013-10-16,53.4,46.5,39.4,43.3,34.0,27.7,73,62,45,29.91,29.83,6,0,6,0.00
2013-10-17,55.2,47.7,40.3,41.6,34.8,28.4,73,62,40,29.97,29.88,5,0,6,0.00
2013-10-18,56.5,44.5,37.0,43.4,33.1,28.2,73,65,44,29.97,29.85,5,0,5,0.00
2013-10-19,49.1,45.7,41.5,41.2,37.3,30.9,74,72,66,29.94,29.85,4,0,4,0.00
2013-10-20,50.2,46.3,43.5,41.2,36.8,32.9,76,70,57,29.97,29.91,4,0,4,0.00
2013-10-21,53.1,46.2,42.4,42.2,35.3,29.4,75,66,48,29.91,29.85,4,0,4,0.00
2013-10-22,54.3,46.4,40.3,44.5,36.0,29.1,74,67,51,29.91,29.80,4,0,4,0.00
2013-10-23,55.9,46.4,41.2,45.9,36.5,30.5,75,69,54,29.85,29.80,4,0,4,0.00
2013-10-24,50.2,46.4,39.4,42.6,38.6,30.8,77,74,68,29.94,29.80,3,0,4,0.00
2013-10-25,52.2,47.4,39.6,45.8,40.2,31.3,79,76,71,30.12,29.94,4,0,6,0.00
2013-10-26,50.4,46.8,38.7,41.5,35.3,30.7,76,65,50,30.15,30.00,6,0,8,0.00
2013-10-27,51.3,46.3,40.1,39.8,34.1,29.6,70,63,54,30.00,29.74,8,0,9,0.00
2013-10-28,56.5,45.5,36.9,37.0,25.2,14.2,74,49,23,29.80,29.71,8,1,8,0.00
2013-10-29,54.9,40.6,31.1,27.1,19.5,16.2,62,44,26,29.88,29.77,5,0,5,0.00
2013-10-30,56.7,46.3,34.7,29.5,24.1,19.3,56,43,29,29.97,29.85,8,0,8,0.00
2013-10-31,53.4,50.1,47.1,42.2,36.8,25.2,69,61,39,30.12,29.94,6,0,6,0.00
2013-11-1,61.2,53.7,49.1,45.3,37.7,28.9,73,57,31,30.12,29.71,4,0,5,0.00
2013-11-2,52.2,49.1,43.7,42.7,30.3,21.4,71,50,34,29.77,29.38,25,3,25,0.04
2013-11-3,51.1,43.4,36.1,28.3,23.5,16.8,57,46,27,30.00,29.77,8,1,8,0.00
2013-11-4,50.7,41.3,32.0,34.2,22.9,17.9,70,50,29,30.06,29.91,5,0,6,0.00
2013-11-5,53.1,47.4,43.0,42.9,31.2,25.5,71,54,38,30.12,29.88,8,1,10,0.00
2013-11-6,53.1,46.7,40.1,39.4,31.9,26.1,70,57,38,30.18,29.91,8,0,8,0.00
2013-11-7,48.7,47.4,46.2,40.0,37.3,33.5,73,68,60,29.91,29.62,11,3,13,0.00
2013-11-8,52.2,47.1,39.7,37.1,30.0,24.4,68,52,36,30.03,29.88,11,1,11,0.00
2013-11-9,50.0,43.2,34.9,39.2,31.9,25.9,73,65,46,30.03,29.94,3,0,4,0.00
2013-11-10,50.2,46.1,41.7,41.2,35.1,30.5,75,66,50,30.03,29.94,6,0,6,0.00
2013-11-11,60.3,48.9,36.3,44.8,29.1,18.4,74,51,25,30.06,29.88,8,1,14,0.00
2013-11-12,57.6,52.8,48.4,45.3,34.7,20.0,68,52,26,30.27,29.91,7,0,7,0.00
2013-11-13,55.9,50.7,44.8,39.2,33.9,27.2,65,53,36,30.33,30.18,8,0,8,0.00
2013-11-14,48.9,44.2,37.8,39.9,34.7,29.0,73,69,56,30.18,29.94,5,0,6,0.00
2013-11-15,46.8,43.3,40.1,37.9,35.2,32.5,76,73,63,29.94,29.23,13,2,13,0.00
2013-11-16,45.7,42.4,37.0,33.4,25.1,20.6,66,51,38,29.68,29.26,8,1,10,0.00
2013-11-17,49.3,45.5,41.4,38.4,31.7,22.0,72,59,45,29.83,29.68,9,1,11,0.00
2013-11-18,51.4,48.7,46.2,43.3,41.1,37.7,76,75,72,29.83,29.47,13,1,13,0.00
2013-11-19,52.7,42.9,35.1,43.1,29.3,9.4,72,59,32,29.94,29.47,12,1,12,0.00
2013-11-20,41.7,32.4,25.3,23.5,12.7,8.0,60,45,29,30.39,29.94,10,0,10,0.00
2013-11-21,41.5,29.5,23.0,23.3,12.1,6.5,65,49,26,30.53,30.36,6,0,6,0.00
2013-11-22,45.0,31.0,23.2,22.2,12.0,9.5,62,47,25,30.50,30.33,6,0,6,0.00
2013-11-23,48.9,34.1,25.2,21.7,14.2,10.9,58,45,26,30.36,30.09,5,0,6,0.00
2013-11-24,47.3,34.4,26.2,28.1,18.4,14.2,67,53,32,30.18,30.03,4,0,4,0.00
2013-11-25,53.4,37.4,28.6,32.6,20.6,17.5,69,53,28,30.24,30.15,3,0,4,0.00
2013-11-26,53.2,40.0,27.5,29.8,20.5,15.8,65,47,28,30.21,30.03,4,0,4,0.00
2013-11-27,53.8,42.2,32.7,27.5,22.3,19.3,61,46,28,30.06,29.88,4,0,4,0.00
2013-11-28,49.8,37.7,30.7,36.3,23.2,19.6,71,57,37,30.18,29.97,4,0,5,0.00
2013-11-29,46.9,43.7,34.3,36.3,30.7,22.3,72,61,42,30.36,30.15,5,0,6,0.00
2013-11-30,49.6,46.8,42.3,39.8,33.9,30.6,74,62,49,30.36,30.15,6,0,6,0.00
2013-12-1,52.3,49.8,43.2,44.0,34.7,20.5,73,57,40,30.15,29.85,14,3,21,0.00
2013-12-2,43.2,37.7,33.6,23.1,18.1,14.4,63,45,34,30.21,29.91,8,1,14,0.00
2013-12-3,38.7,31.8,25.0,24.3,12.3,6.0,65,45,30,30.50,30.12,11,1,11,0.00
2013-12-4,36.5,25.7,20.1,17.2,8.5,3.3,62,49,31,30.56,30.45,6,0,6,0.00
2013-12-5,32.7,24.8,18.1,8.9,4.6,-1.6,54,42,28,30.56,30.42,8,0,10,0.00
2013-12-6,30.2,23.7,13.5,-1.3,-4.7,-9.2,35,28,23,30.53,30.42,8,1,10,0.00
2013-12-7,29.1,16.8,10.0,1.2,-8.3,-12.1,45,32,23,30.77,30.50,6,0,7,0.00
2013-12-8,31.6,19.8,11.7,2.3,-3.7,-10.1,42,35,25,31.01,30.74,4,0,5,0.00
2013-12-9,32.5,26.1,15.1,8.9,3.1,-2.6,45,37,30,31.01,30.92,3,0,3,0.00
2013-12-10,38.8,32.8,26.8,20.6,15.5,8.9,56,49,41,30.98,30.89,4,0,4,0.00
2013-12-11,41.0,30.0,23.2,27.5,16.0,11.5,68,56,40,30.95,30.71,5,0,5,0.00
2013-12-12,41.0,34.4,26.1,32.2,23.7,15.7,72,65,49,30.77,30.59,4,0,5,0.00
2013-12-13,47.3,44.0,40.3,40.1,36.5,32.0,77,75,72,31.01,30.74,5,0,6,0.00
2013-12-14,46.4,43.7,39.9,39.4,36.1,31.8,79,74,57,31.01,30.95,8,0,8,0.00
2013-12-15,51.3,47.7,45.0,40.8,35.7,30.1,72,63,54,31.01,30.95,6,0,8,0.00
2013-12-16,47.3,42.5,36.3,39.5,34.3,28.5,75,72,68,31.01,30.92,4,0,4,0.00
2013-12-17,44.4,39.7,34.5,36.1,32.2,27.1,77,74,68,30.95,30.77,6,0,7,0.00
2013-12-18,43.9,39.0,30.0,34.4,30.5,20.8,75,71,68,30.89,30.71,6,0,7,0.00
2013-12-19,35.4,29.7,24.4,26.6,19.0,15.1,73,64,49,31.01,30.83,4,0,4,0.00
2013-12-20,42.1,34.6,27.7,34.4,23.7,14.7,74,64,52,30.95,30.42,5,0,6,0.00
2013-12-21,44.8,42.6,39.9,38.3,35.9,33.0,79,77,74,30.92,30.56,8,0,8,0.00
2013-12-22,48.7,46.9,44.2,42.9,41.0,38.0,80,80,79,31.01,30.86,6,1,8,0.00
2013-12-23,51.6,47.1,41.7,45.2,34.5,23.1,81,64,36,31.01,30.86,11,2,13,0.00
2013-12-24,46.2,37.3,29.3,35.2,23.0,17.5,70,57,39,31.01,31.01,5,0,6,0.00
2013-12-25,40.8,33.5,28.6,32.3,23.2,17.8,74,66,53,31.01,31.01,4,0,4,0.00
2013-12-26,43.5,34.6,30.2,34.8,24.4,18.7,75,66,51,31.01,30.89,4,0,4,0.00
2013-12-27,43.5,37.5,31.1,35.5,29.6,21.6,75,73,67,31.01,30.86,6,0,6,0.00
2013-12-28,47.1,40.3,31.8,40.0,32.4,22.8,77,73,64,31.01,31.01,6,0,6,0.00
2013-12-29,42.4,36.4,31.6,35.1,28.2,23.7,75,72,66,31.01,31.01,4,0,4,0.00
2013-12-30,45.1,39.6,34.0,37.2,31.4,26.2,76,72,54,31.01,30.86,9,0,9,0.00
2013-12-31,45.9,42.2,35.8,37.4,32.1,27.5,76,67,54,31.01,30.92,5,0,8,0.00
2014-1-1,44.1,38.6,32.5,37.3,31.8,25.8,78,76,75,31.01,30.95,3,0,4,0.00
2014-1-2,47.1,43.9,40.5,40.3,36.3,33.5,78,75,67,31.01,30.68,8,0,10,0.00